首页
METAR-TAF:

METAR-TAF

机场 :

Yorkton, 薩斯喀徹溫, 加拿大

纬度: 51-16N, 经度: 102-28W, 海拔: 498米

当前天气观测

该预报发布于52分钟前的01:00 UTC
风速18节,风向南转南东,有时为30节阵风
温度 25°C
湿度 39%
气压 1005 hPa
能見度: 14.5公里
散云层高于16000英尺
多云层高于21000英尺

METAR: CYQV 010100Z AUTO 15018G30KT 9SM SCT160 BKN210 25/10 A2968 RMK SLP053 DENSITY ALT 3400FT

时间: 19:52 (01:52 UTC)

预报

该预报发布于2小时和14分钟前的23:38 UTC
预报有效从01日的 00点(UTC)到 01日的 06点(UTC)
风速20节,风向南转南东,有时为30节阵风
能見度: 10公里
散云层高于25000英尺
从 01日的 0200点(UTC)
风速15节,风向东南,有时为25节阵风
能見度: 10公里
散云层高于8000英尺
多云层高于14000英尺
短暂存在
从 01日的 02点(UTC)到 01日的 06点(UTC)
风速25节,风向多变,有时为35节阵风
能見度: 10公里
阴天层高于6000英尺, 积雨云.
附近有雷暴
成为
从 01日的 04点(UTC)到 01日的 06点(UTC)
风速15节,风向西南,有时为25节阵风

TAF: CYQV 312338Z 0100/0106 16020G30KT P6SM SCT250 FM010200 14015G25KT P6SM SCT080 BKN140 TEMPO 0102/0106 VRB25G35KT P6SM VCTS OVC060CB BECMG 0104/0106 22015G25KT RMK FCST BASED ON AUTO OBS. NXT FCST WILL BE ISSUED AT 011145Z

超过4000个机场的气象观测和天气预报(METAR&TAF报告)。

可查询的气象台以黄色和红色小点在地图上表示。

将鼠标移到小点上方,可查看气象台名称。

然后点击查看天气观测和预报。

如需切换地图:点击带黑十字的绿色按钮放大地图;点击带横线的绿色按钮缩小地图;或者点击绿色箭头查看邻近地区的地图。


METAR-TAF: